SBJP/JPA METAR and TAF weather

Enter ICAO airport designator
Station Type Date Time Source
SBJP METAR 2021/08/05 05:00 UTC NOAA

SBJP 050500Z 18009KT 9999 FEW025 SCT070 21/20 Q1018


Station Type Date Time Source
SBJP Decoded METAR 2021/08/05 05:00 UTC NOAA

Joao Pessoa, Brazil (SBJP) 07-06S 034-52W
Aug 05, 2021 - 01:00 AM EDT / 2021.08.05 0500 UTC
Wind: from the S (180 degrees) at 10 MPH (9 KT):0
Visibility: greater than 7 mile(s):0
Sky conditions: partly cloudy
Temperature: 69 F (21 C)
Dew Point: 68 F (20 C)
Relative Humidity: 94%
Pressure (altimeter): 30.06 in. Hg (1018 hPa)
ob: SBJP 050500Z 18009KT 9999 FEW025 SCT070 21/20 Q1018
cycle: 5

Station Type Date Time Source
SBJP TAF 2021/08/05 06:36 UTC NOAA

TAF TAF SBJP 050300Z 0506/0606 18010KT 7000 SCT020 TX24/0516Z TN22/0606Z
BECMG 0512/0514 14010KT 4000 RA BKN008 BKN020
BECMG 0518/0520 17010KT 9999 NSW FEW015
BECMG 0600/0602 19010KT 5000 RA SCT015
RMK PGY

Example: see airport list